Tiempo atmosférico en la estación meteorológica de La Oliva, Puerto de Corralejo, Las Palmas (6 m.)



Fecha
DESCASC
Temp. máxima en grados centígrados (hora)
DESCASC
Temp. mínima en grados centígrados (hora)
DESCASC
Temp. media en grados centígrados
DESCASC
Racha de viento máxima en m/sg (hora)
DESCASC
Velocidad máxima media en intervalos de 10 minutos(hora)
DESCASC
Precipitaciones diarias en mm
DESCASC
Precipitaciones de 00:00 a 06:00 en mm
DESCASC
Precipitaciones de 06:00 a 12:00 en mm
DESCASC
Precipitaciones de 12:00 a 18:00 en mm
DESCASC
Precipitaciones de 18:00 a 24:00 en mm
DESCASC
31-05-2020 23.3 (16:40) 19.8 (05:30) 21.5 9.17 (14:40) 6.67 (14:40) 0 0 0 0 0
30-05-2020 23.2 (15:00) 20.5 (05:20) 21.9 8.61 (16:00) 6.39 (11:30) 0 0 0 0 0
29-05-2020 22.7 (15:50) 19.5 (00:00) 21.1 9.44 (15:40) 6.39 (00:40) 0 0 0 0 0
28-05-2020 23.2 (13:40) 18.8 (00:00) 21 12.5 (20:00) 8.89 (19:20) 0 0 0 0 0
27-05-2020 23.3 (15:40) 18.5 (00:00) 20.9 12.22 (22:00) 7.5 (19:10) 0 0 0 0 0
26-05-2020 24 (14:10) 19.8 (00:00) 21.9 9.72 (17:10) 7.78 (17:10) 0 0 0 0 0
25-05-2020 25.7 (15:10) 19.6 (00:00) 22.7 6.67 (20:00) 5.28 (05:10) 0 0 0 0 0
24-05-2020 24.3 (16:10) 19.3 (00:00) 21.8 10 (18:00) 6.94 (18:30) 0 0 0 0 0
23-05-2020 26.6 (11:30) 20 (00:00) 23.3 11.67 (02:00) 7.22 (02:20) 0 0 0 0 0
22-05-2020 24.3 (17:50) 18.8 (00:00) 21.5 11.67 (08:00) 8.61 (04:00) 0 0 0 0 0
21-05-2020 22.6 (11:40) 18.7 (00:00) 20.7 17.22 (19:00) 10.56 (16:40) 0 0 0 0 0
20-05-2020 25.4 (11:40) 19.5 (00:00) 22.4 13.89 (17:10) 9.72 (17:00) 0 0 0 0 0
19-05-2020 22.6 (16:00) 19.1 (00:00) 20.9 11.39 (21:00) 7.5 (05:40) 0 0 0 0 0
18-05-2020 21.8 (17:00) 18.8 (00:00) 20.3 11.67 (16:00) 8.61 (16:30) 0 0 0 0 0
17-05-2020 21.1 (12:40) 18.5 (00:00) 19.8 16.39 (16:00) 10.28 (16:50) 0 0 0 0 0
16-05-2020 21.5 (13:50) 18.4 (00:00) 19.9 13.33 (18:00) 9.44 (18:40) 0 0 0 0 0
15-05-2020 21.5 (15:00) 18.3 (00:00) 19.9 14.44 (02:00) 8.89 (10:20) 0 0 0 0 0
14-05-2020 21.4 (14:30) 18.7 (00:00) 20.1 17.22 (20:10) 10.56 (18:30) 0 0 0 0 0
13-05-2020 22.1 (13:50) 18.6 (00:00) 20.4 17.5 (15:00) 10.28 (13:40) 0 0 0 0 0
12-05-2020 22.1 (14:40) 19 (00:00) 20.6 14.17 (18:30) 9.72 (18:30) 0 0 0 0 0
11-05-2020 22.9 (15:20) 19.4 (00:00) 21.1 13.89 (23:00) 8.33 (22:50) 0 0 0 0 0
10-05-2020 22.5 (14:30) 19.3 (00:00) 20.9 12.22 (22:00) 8.61 (20:50) 0 0 0 0 0
09-05-2020 22.5 (15:40) 19.1 (00:00) 20.8 11.39 (19:00) 7.5 (21:00) 0 0 0 0 0
08-05-2020 21.7 (15:00) 19 (00:00) 20.4 11.94 (18:00) 7.5 (18:00) 0 0 0 0 0
07-05-2020 21.7 (15:30) 18.4 (00:00) 20.1 11.67 (15:00) 7.78 (13:10) 0 0 0 0 0
06-05-2020 22.9 (15:10) 18.6 (00:00) 20.8 10 (21:00) 7.5 (19:00) 0 0 0 0 0
05-05-2020 23.9 (13:10) 18.8 (00:00) 21.3 11.94 (19:00) 8.89 (18:20) 0 0 0 0 0
04-05-2020 22.8 (13:00) 17.8 (00:00) 20.3 11.94 (18:00) 7.5 (19:00) 0 0 0 0 0
03-05-2020 22.6 (15:30) 18.2 (00:00) 20.4 10 (20:00) 6.39 (12:10) 0 0 0 0 0

Gráficas

Temp. máximas Temp. mínimas Temp. medias Precipitaciones Rachas de viento máximas Velocidades máximas media en intervalos de 10 minutos

Datos horarios

Fecha y hora oficial Temperatura (ºC) Velocidad del viento (km/h) Dirección del viento Racha (km/h) Dirección de racha Precipitación (mm) Presión (hPa) Tendencia (hPa) Humedad (%)
2020-06-01 23:00:00 21.7 4 Nordeste 7 Sudeste 0 -- -- 74
2020-06-01 22:00:00 21.7 4 Sudeste 12 Este 0 -- -- 75
2020-06-01 21:00:00 21.8 9 Este 13 Sudeste 0 -- -- 73
2020-06-01 20:00:00 22.5 12 Sudeste 16 Sudeste 0 -- -- 71
2020-06-01 19:00:00 22.6 12 Sudeste 21 Sudeste 0 -- -- 70
2020-06-01 18:00:00 22.7 15 Sudeste 20 Este 0 -- -- 68
2020-06-01 17:00:00 22.7 18 Este 24 Este 0 -- -- 67
2020-06-01 16:00:00 23.5 15 Este 25 Este 0 -- -- 65
2020-06-01 15:00:00 24 14 Norte 21 Norte 0 -- -- 66
2020-06-01 14:00:00 23 16 Noroeste 27 Noroeste 0 -- -- 66
2020-06-01 13:00:00 22.4 18 Noroeste 24 Noroeste 0 -- -- 69
2020-06-01 12:00:00 22.8 12 Norte 15 Norte 0 -- -- 69
2020-06-01 11:00:00 22.4 9 Norte 12 Norte 0 -- -- 72
2020-06-01 10:00:00 22.4 6 Norte 13 Noroeste 0 -- -- 74
2020-06-01 09:00:00 21.3 10 Noroeste 14 Noroeste 0 -- -- 84
2020-06-01 08:00:00 20.9 10 Norte 14 Noroeste 0 -- -- 86
2020-06-01 07:00:00 19.9 9 Norte 13 Noroeste 0 -- -- 89
2020-06-01 06:00:00 20 9 Noroeste 14 Noroeste 0 -- -- 88
2020-06-01 05:00:00 20.1 9 Noroeste 15 Noroeste 0 -- -- 88
2020-06-01 04:00:00 20.1 6 Noroeste 12 Noroeste 0 -- -- 89
2020-06-01 03:00:00 20.4 7 Norte 14 Norte 0 -- -- 90
2020-06-01 02:00:00 20.7 10 Norte 18 Noroeste 0 -- -- 89
2020-06-01 01:00:00 20.9 14 Noroeste 18 Noroeste 0 -- -- 88
2020-06-01 00:00:00 21 12 Norte 17 Noroeste 0 -- -- 86
2020-05-31 23:00:00 21.2 12 Noroeste 18 Noroeste 0 -- -- 83
2020-05-31 22:00:00 21.3 13 Noroeste 20 Noroeste 0 -- -- 80
2020-05-31 21:00:00 21.3 12 Noroeste 21 Noroeste 0 -- -- 76
2020-05-31 20:00:00 22.1 15 Noroeste 25 Noroeste 0 -- -- 71
2020-05-31 19:00:00 22.2 18 Noroeste 29 Noroeste 0 -- -- 69
2020-05-31 18:00:00 22.8 19 Noroeste 32 Noroeste 0 -- -- 66
2020-05-31 17:00:00 23.3 18 Noroeste 32 Noroeste 0 -- -- 65
2020-05-31 16:00:00 23 21 Noroeste 32 Noroeste 0 -- -- 66
2020-05-31 15:00:00 22.9 22 Noroeste 33 Noroeste 0 -- -- 67
2020-05-31 14:00:00 22.9 19 Noroeste 30 Noroeste 0 -- -- 66
2020-05-31 13:00:00 23.2 20 Noroeste 30 Noroeste 0 -- -- 66
2020-05-31 12:00:00 22.8 15 Noroeste 26 Oeste 0 -- -- 64
2020-05-31 11:00:00 22.1 13 Noroeste 18 Noroeste 0 -- -- 77
2020-05-31 10:00:00 21.6 7 Noroeste 15 Noroeste 0 -- -- 85
2020-05-31 09:00:00 21.1 11 Noroeste 18 Noroeste 0 -- -- 84
2020-05-31 08:00:00 20.5 10 Noroeste 16 Noroeste 0 -- -- 87
2020-05-31 07:00:00 20.1 8 Noroeste 14 Noroeste 0 -- -- 89
2020-05-31 06:00:00 20.1 9 Noroeste 13 Noroeste 0 -- -- 89
2020-05-31 05:00:00 20.1 5 Noroeste 12 Noroeste 0 -- -- 89
2020-05-31 04:00:00 20.3 9 Noroeste 14 Noroeste 0 -- -- 88
2020-05-31 03:00:00 20.5 9 Noroeste 15 Noroeste 0 -- -- 88
2020-05-31 02:00:00 20.7 8 Noroeste 13 Noroeste 0 -- -- 87
2020-05-31 01:00:00 20.7 7 Noroeste 14 Noroeste 0 -- -- 87
2020-05-31 00:00:00 20.7 10 Noroeste 17 Noroeste 0 -- -- 86
2020-05-30 23:00:00 20.7 13 Noroeste 19 Noroeste 0 -- -- 84
2020-05-30 22:00:00 20.8 11 Noroeste 19 Noroeste 0 -- -- 86
2020-05-30 21:00:00 20.9 13 Noroeste 20 Noroeste 0 -- -- 82
2020-05-30 20:00:00 21.4 12 Noroeste 22 Noroeste 0 -- -- 78
2020-05-30 19:00:00 21.5 15 Noroeste 21 Noroeste 0 -- -- 74
2020-05-30 18:00:00 21.8 17 Noroeste 24 Noroeste 0 -- -- 70
2020-05-30 17:00:00 22.7 17 Noroeste 27 Noroeste 0 -- -- 66
2020-05-30 16:00:00 22.7 19 Noroeste 31 Noroeste 0 -- -- 67
2020-05-30 15:00:00 23.2 17 Noroeste 28 Noroeste 0 -- -- 62
2020-05-30 14:00:00 22.6 19 Noroeste 28 Noroeste 0 -- -- 66
2020-05-30 13:00:00 22.7 20 Noroeste 28 Noroeste 0 -- -- 64
2020-05-30 12:00:00 22.5 21 Noroeste 28 Noroeste 0 -- -- 65
2020-05-30 11:00:00 22.2 20 Noroeste 25 Noroeste 0 -- -- 68
2020-05-30 10:00:00 21.9 12 Noroeste 16 Oeste 0 -- -- 65
2020-05-30 09:00:00 21.7 8 Noroeste 12 Noroeste 0 -- -- 62
2020-05-30 08:00:00 21.1 8 Noroeste 18 Noroeste 0 -- -- 62
2020-05-30 07:00:00 20.7 14 Norte 22 Norte 0 -- -- 68
2020-05-30 06:00:00 20.9 10 Noroeste 15 Noroeste 0 -- -- 67
2020-05-30 05:00:00 20.9 8 Noroeste 15 Noroeste 0 -- -- 72
2020-05-30 04:00:00 20.7 10 Noroeste 18 Norte 0 -- -- 69
2020-05-30 03:00:00 20.8 11 Norte 24 Norte 0 -- -- 70
2020-05-30 02:00:00 21 17 Norte 22 Norte 0 -- -- 73
2020-05-30 01:00:00 21.2 10 Noroeste 30 Norte 0 -- -- 71
2020-05-30 00:00:00 21.2 17 Noroeste 27 Noroeste 0 -- -- 74
2020-05-29 23:00:00 20.9 15 Noroeste 28 Norte 0 -- -- 70
2020-05-29 22:00:00 21.1 19 Noroeste 29 Norte 0 -- -- 73
2020-05-29 21:00:00 21.2 16 Noroeste 30 Noroeste 0 -- -- 72
2020-05-29 20:00:00 21.1 21 Noroeste 33 Noroeste 0 -- -- 69
2020-05-29 19:00:00 21.9 20 Noroeste 31 Noroeste 0 -- -- 69
2020-05-29 18:00:00 22.2 22 Noroeste 32 Noroeste 0 -- -- 73
2020-05-29 17:00:00 22.5 21 Noroeste 34 Noroeste 0 -- -- 69
2020-05-29 16:00:00 22.5 21 Noroeste 34 Noroeste 0 -- -- 65
2020-05-29 15:00:00 22.3 20 Noroeste 28 Noroeste 0 -- -- 65
2020-05-29 14:00:00 22 19 Noroeste 32 Noroeste 0 -- -- 66
2020-05-29 13:00:00 22 22 Noroeste 28 Noroeste 0 -- -- 67
2020-05-29 12:00:00 21.2 18 Noroeste 31 Noroeste 0 -- -- 68
2020-05-29 11:00:00 21.2 18 Noroeste 27 Noroeste 0 -- -- 70
2020-05-29 10:00:00 20.3 15 Noroeste 26 Noroeste 0 -- -- 78
2020-05-29 09:00:00 20 14 Noroeste 27 Norte 0 -- -- 82
2020-05-29 08:00:00 19.8 15 Noroeste 24 Noroeste 0 -- -- 83
2020-05-29 07:00:00 19.7 19 Norte 27 Norte 0 -- -- 86
2020-05-29 06:00:00 20 15 Norte 28 Norte 0 -- -- 86
2020-05-29 05:00:00 19.9 16 Norte 31 Norte 0 -- -- 86
2020-05-29 04:00:00 19.9 18 Noroeste 32 Norte 0 -- -- 85
2020-05-29 03:00:00 19.9 17 Norte 31 Norte 0 -- -- 86
2020-05-29 02:00:00 19.5 23 Norte 34 Norte 0 -- -- 86
2020-05-29 01:00:00 19.6 22 Norte 32 Norte 0 -- -- 87
2020-05-29 00:00:00 19.5 22 Noroeste 35 Noroeste 0 -- -- 86
2020-05-28 23:00:00 19.8 22 Noroeste 33 Norte 0 -- -- 87
2020-05-28 22:00:00 20.2 23 Norte 38 Norte 0 -- -- 86
2020-05-28 21:00:00 20.2 23 Noroeste 33 Noroeste 0 -- -- 83
2020-05-28 20:00:00 21 27 Norte 45 Noroeste 0 -- -- 81
2020-05-28 19:00:00 21.1 27 Noroeste 40 Noroeste 0 -- -- 76
2020-05-28 18:00:00 21.5 30 Norte 37 Noroeste 0 -- -- 73
2020-05-28 17:00:00 21.8 24 Noroeste 32 Noroeste 0 -- -- 70
2020-05-28 16:00:00 22.1 21 Noroeste 31 Noroeste 0 -- -- 68
2020-05-28 15:00:00 22.3 18 Norte 25 Noroeste 0 -- -- 68
2020-05-28 14:00:00 22.8 10 Norte 24 Noroeste 0 -- -- 69
2020-05-28 13:00:00 21.4 21 Noroeste 31 Noroeste 0 -- -- 74
2020-05-28 12:00:00 20.9 23 Noroeste 34 Noroeste 0 -- -- 77
2020-05-28 11:00:00 20.6 22 Noroeste 31 Noroeste 0 -- -- 80
2020-05-28 10:00:00 20.5 21 Noroeste 28 Noroeste 0 -- -- 83
2020-05-28 09:00:00 19.8 22 Noroeste 34 Noroeste 0 -- -- 85
2020-05-28 08:00:00 19.5 18 Norte 24 Norte 0 -- -- 89
2020-05-28 07:00:00 18.9 15 Norte 23 Norte 0 -- -- 90
2020-05-28 06:00:00 19.1 15 Norte 23 Norte 0 -- -- 90
2020-05-28 05:00:00 19 19 Norte 30 Noroeste 0 -- -- 90
2020-05-28 04:00:00 19.1 23 Noroeste 35 Norte 0 -- -- 90
2020-05-28 03:00:00 19.4 21 Norte 30 Noroeste 0 -- -- 90
2020-05-28 02:00:00 19.5 20 Norte 31 Noroeste 0 -- -- 90
2020-05-28 01:00:00 19.6 24 Noroeste 32 Noroeste 0 -- -- 90
2020-05-28 00:00:00 19.8 23 Noroeste 31 Noroeste 0 -- -- 90
2020-05-27 23:00:00 20 21 Noroeste 33 Noroeste 0 -- -- 90
2020-05-27 22:00:00 20.1 23 Noroeste 44 Noroeste 0 -- -- 90
2020-05-27 21:00:00 20.3 21 Noroeste 30 Noroeste 0 -- -- 89
2020-05-27 20:00:00 21.1 23 Noroeste 35 Noroeste 0 -- -- 87
2020-05-27 19:00:00 21.4 25 Noroeste 34 Noroeste 0 -- -- 84
2020-05-27 18:00:00 21.9 22 Noroeste 36 Noroeste 0 -- -- 81
2020-05-27 17:00:00 22.2 22 Norte 26 Noroeste 0 -- -- 81
2020-05-27 16:00:00 22.7 20 Noroeste 31 Norte 0 -- -- 78
2020-05-27 15:00:00 22.9 20 Norte 25 Noroeste 0 -- -- 77
2020-05-27 14:00:00 22.9 13 Norte 19 Noroeste 0 -- -- 77
2020-05-27 13:00:00 22.2 9 Norte 15 Este 0 -- -- 79
2020-05-27 12:00:00 21.8 13 Este 21 Este 0 -- -- 82
2020-05-27 11:00:00 21.6 14 Sudeste 17 Este 0 -- -- 80
2020-05-27 10:00:00 21.7 5 Norte 10 Norte 0 -- -- 75
2020-05-27 09:00:00 21.1 5 Noroeste 10 Noroeste 0 -- -- 82
2020-05-27 08:00:00 19.8 6 Oeste 12 Sudoeste 0 -- -- 88
2020-05-27 07:00:00 18.7 7 Sudoeste 11 Sudoeste 0 -- -- 92
2020-05-27 06:00:00 19.2 3 Noroeste 14 Nordeste 0 -- -- 92
2020-05-27 05:00:00 19.3 9 Este 16 Este 0 -- -- 92
2020-05-27 04:00:00 19.5 9 Este 15 Este 0 -- -- 93
2020-05-27 03:00:00 19.5 8 Sudeste 15 Sur 0 -- -- 93
2020-05-27 02:00:00 19.4 5 Sur 10 Norte 0 -- -- 92
2020-05-27 01:00:00 20 6 Noroeste 13 Oeste 0 -- -- 91
2020-05-27 00:00:00 20.3 11 Sudoeste 17 Sudoeste 0 -- -- 92
2020-05-26 23:00:00 20.6 9 Sur 14 Sur 0 -- -- 93
2020-05-26 22:00:00 20.9 10 Sudeste 17 Sudeste 0 -- -- 93
2020-05-26 21:00:00 21.3 12 Este 24 Este 0 -- -- 92
2020-05-26 20:00:00 22.6 12 Norte 35 Noroeste 0 -- -- 87
2020-05-26 19:00:00 21.8 21 Noroeste 32 Noroeste 0 -- -- 87
2020-05-26 18:00:00 22.5 23 Norte 35 Noroeste 0 -- -- 84
2020-05-26 17:00:00 22.6 24 Noroeste 32 Noroeste 0 -- -- 83
2020-05-26 16:00:00 22.9 22 Noroeste 28 Norte 0 -- -- 83
2020-05-26 15:00:00 23.6 15 Norte 22 Norte 0 -- -- 80
2020-05-26 14:00:00 23.4 12 Este 17 Este 0 -- -- 78
2020-05-26 13:00:00 23.6 6 Nordeste 16 Norte 0 -- -- 81
2020-05-26 12:00:00 22.8 13 Norte 25 Noroeste 0 -- -- 83
2020-05-26 11:00:00 22.4 15 Noroeste 23 Noroeste 0 -- -- 85
2020-05-26 10:00:00 21.7 19 Noroeste 28 Noroeste 0 -- -- 88
2020-05-26 09:00:00 21.6 9 Noroeste 12 Noroeste 0 -- -- 88
2020-05-26 08:00:00 20.6 8 Oeste 15 Oeste 0 -- -- 91
2020-05-26 07:00:00 19.9 5 Oeste 11 Oeste 0 -- -- 93
2020-05-26 06:00:00 20.1 2 Sur 19 Sudeste 0 -- -- 89
2020-05-26 05:00:00 20.6 13 Sudeste 24 Sudeste 0 -- -- 88
2020-05-26 04:00:00 21.4 13 Sudeste 21 Sudeste 0 -- -- 81
2020-05-26 03:00:00 20.9 7 Sudeste 21 Sudeste 0 -- -- 87
2020-05-26 02:00:00 20.9 10 Sudeste 18 Sur 0 -- -- 87
2020-05-26 01:00:00 21.1 4 Sur 6 Sur 0 -- -- 89
2020-05-26 00:00:00 21.3 0 Calma 13 Sudoeste 0 -- -- 89
2020-05-25 23:00:00 21.6 10 Sudoeste 15 Sudoeste 0 -- -- 90
2020-05-25 22:00:00 21.9 8 Oeste 17 Oeste 0 -- -- 89
2020-05-25 21:00:00 22.5 12 Oeste 22 Oeste 0 -- -- 85
2020-05-25 20:00:00 23.1 15 Oeste 24 Oeste 0 -- -- 84
2020-05-25 19:00:00 24.2 10 Noroeste 14 Noroeste 0 -- -- 70
2020-05-25 18:00:00 24.1 9 Sudeste 12 Sudeste 0 -- -- 71
2020-05-25 17:00:00 23.5 10 Sudeste 14 Sudeste 0 -- -- 77
2020-05-25 16:00:00 24.6 8 Este 15 Nordeste 0 -- -- 68
2020-05-25 15:00:00 25.6 10 Nordeste 16 Nordeste 0 -- -- 65
2020-05-25 14:00:00 24 12 Este 19 Este 0 -- -- 75
2020-05-25 13:00:00 23.3 14 Este 23 Este 0 -- -- 82
2020-05-25 12:00:00 23 15 Este 19 Este 0 -- -- 83
2020-05-25 11:00:00 23.2 5 Norte 19 Noroeste 0 -- -- 81
2020-05-25 10:00:00 22.6 8 Noroeste 15 Noroeste 0 -- -- 79
2020-05-25 09:00:00 21.3 10 Noroeste 16 Noroeste 0 -- -- 87
2020-05-25 08:00:00 20.4 9 Noroeste 19 Norte 0 -- -- 92
2020-05-25 07:00:00 19.8 9 Noroeste 21 Norte 0 -- -- 95
2020-05-25 06:00:00 19.8 12 Noroeste 24 Noroeste 0 -- -- 94
2020-05-25 05:00:00 19.8 15 Noroeste 22 Noroeste 0 -- -- 95
2020-05-25 04:00:00 19.8 11 Noroeste 16 Oeste 0 -- -- 96
2020-05-25 03:00:00 20.3 4 Noroeste 13 Nordeste 0 -- -- 96
2020-05-25 02:00:00 20.8 6 Nordeste 16 Sudeste 0 -- -- 94
2020-05-25 01:00:00 20.4 10 Sudeste 16 Sudeste 0 -- -- 94
2020-05-25 00:00:00 20.7 7 Sur 17 Sudeste 0 -- -- 94
2020-05-24 23:00:00 20.7 13 Noroeste 25 Noroeste 0 -- -- 94
2020-05-24 22:00:00 20.9 19 Noroeste 32 Noroeste 0 -- -- 94
2020-05-24 21:00:00 20.9 19 Noroeste 32 Noroeste 0 -- -- 93
2020-05-24 20:00:00 21.4 20 Noroeste 31 Noroeste 0 -- -- 90
2020-05-24 19:00:00 21.9 21 Noroeste 34 Oeste 0 -- -- 88
2020-05-24 18:00:00 22 23 Noroeste 36 Noroeste 0 -- -- 86
2020-05-24 17:00:00 23.3 18 Noroeste 27 Norte 0 -- -- 79
2020-05-24 16:00:00 24.2 4 Nordeste 14 Este 0 -- -- 76
2020-05-24 15:00:00 22.7 12 Sudeste 20 Sudeste 0 -- -- 84
2020-05-24 14:00:00 22.5 16 Sudeste 22 Este 0 -- -- 82
2020-05-24 13:00:00 23.1 16 Este 32 Este 0 -- -- 77
2020-05-24 12:00:00 23.4 23 Este 33 Este 0 -- -- 75
2020-05-24 11:00:00 22.3 22 Sudeste 33 Sudeste 0 -- -- 81
2020-05-24 10:00:00 22 12 Sudeste 14 Sudeste 0 -- -- 79
2020-05-24 09:00:00 22.5 5 Sudeste 9 Sudeste 0 -- -- 78
2020-05-24 08:00:00 21.6 3 Sudoeste 12 Noroeste 0 -- -- 85
2020-05-24 07:00:00 19.8 9 Norte 13 Norte 0 -- -- 90
2020-05-24 06:00:00 19.5 8 Sudoeste 10 Sudoeste 0 -- -- 88
2020-05-24 05:00:00 19.9 7 Sur 12 Sur 0 -- -- 87
2020-05-24 04:00:00 20.3 9 Sudoeste 14 Sudoeste 0 -- -- 84
2020-05-24 03:00:00 20.7 9 Sudoeste 12 Sudoeste 0 -- -- 82
2020-05-24 02:00:00 20.6 9 Sudoeste 13 Sudoeste 0 -- -- 86
2020-05-24 01:00:00 20.9 7 Oeste 14 Oeste 0 -- -- 86
2020-05-24 00:00:00 21.2 11 Oeste 16 Oeste 0 -- -- 86
2020-05-23 23:00:00 21.2 10 Oeste 17 Sudoeste 0 -- -- 87
2020-05-23 22:00:00 21.8 6 Noroeste 16 Oeste 0 -- -- 85
2020-05-23 21:00:00 22.4 9 Oeste 15 Noroeste 0 -- -- 80
2020-05-23 20:00:00 22.9 10 Noroeste 27 Noroeste 0 -- -- 80
2020-05-23 19:00:00 23.3 18 Noroeste 28 Noroeste 0 -- -- 76
2020-05-23 18:00:00 23.3 16 Norte 33 Norte 0 -- -- 75
2020-05-23 17:00:00 23.4 20 Noroeste 28 Noroeste 0 -- -- 65
2020-05-23 16:00:00 24.1 9 Norte 18 Norte 0 -- -- 64
2020-05-23 15:00:00 23.8 15 Norte 23 Norte 0 -- -- 64
2020-05-23 14:00:00 24.6 6 Norte 33 Este 0 -- -- 62
2020-05-23 13:00:00 24.6 24 Este 37 Este 0 -- -- 60
2020-05-23 12:00:00 24.2 21 Este 28 Este 0 -- -- 61
2020-05-23 11:00:00 25.2 5 Sudeste 16 Sudeste 0 -- -- 58
2020-05-23 10:00:00 23 13 Este 22 Este 0 -- -- 71
2020-05-23 09:00:00 22.4 7 Norte 15 Norte 0 -- -- 84
2020-05-23 08:00:00 21 10 Norte 16 Norte 0 -- -- 87
2020-05-23 07:00:00 20 6 Noroeste 13 Noroeste 0 -- -- 90
2020-05-23 06:00:00 20.1 9 Norte 21 Norte 0 -- -- 91
2020-05-23 05:00:00 20.1 15 Norte 27 Norte 0 -- -- 92
2020-05-23 04:00:00 20.2 22 Norte 28 Norte 0 -- -- 91
2020-05-23 03:00:00 20.2 22 Norte 37 Norte 0 -- -- 91
2020-05-23 02:00:00 20.3 25 Norte 42 Noroeste 0 -- -- 91
2020-05-23 01:00:00 20.4 19 Noroeste 26 Noroeste 0 -- -- 88
2020-05-23 00:00:00 21 10 Norte 25 Norte 0 -- -- 86
2020-05-22 23:00:00 20.7 19 Norte 36 Noroeste 0 -- -- 87
2020-05-22 22:00:00 20.8 27 Norte 35 Noroeste 0 -- -- 87
2020-05-22 21:00:00 21.4 24 Norte 33 Norte 0 -- -- 79
2020-05-22 20:00:00 23.3 3 Sur 14 Sudeste 0 -- -- 67
2020-05-22 19:00:00 22.8 11 Norte 33 Noroeste 0 -- -- 71
2020-05-22 18:00:00 24 5 Norte 10 Norte 0 -- -- 61
2020-05-22 17:00:00 23.6 5 Norte 23 Norte 0 -- -- 66
2020-05-22 16:00:00 22.9 15 Norte 34 Nordeste 0 -- -- 67
2020-05-22 15:00:00 23 20 Nordeste 32 Nordeste 0 -- -- 68
2020-05-22 14:00:00 22.3 16 Nordeste 27 Nordeste 0 -- -- 69
2020-05-22 13:00:00 22.9 8 Norte 17 Nordeste 0 -- -- 65
2020-05-22 12:00:00 22.4 10 Nordeste 20 Nordeste 0 -- -- 67
2020-05-22 11:00:00 21.7 15 Nordeste 20 Nordeste 0 -- -- 68
2020-05-22 10:00:00 21 13 Norte 31 Norte 0 -- -- 75
2020-05-22 09:00:00 19.9 26 Norte 36 Norte 0 -- -- 84
2020-05-22 08:00:00 19.2 28 Norte 42 Norte 0 -- -- 86
2020-05-22 07:00:00 18.8 28 Norte 36 Norte 0 -- -- 87
2020-05-22 06:00:00 19 27 Norte 40 Norte 0 -- -- 87
2020-05-22 05:00:00 19 31 Norte 37 Norte 0 -- -- 87
2020-05-22 04:00:00 19 31 Norte 38 Norte 0 -- -- 86
2020-05-22 03:00:00 19 27 Norte 33 Norte 0 -- -- 85
2020-05-22 02:00:00 19.2 19 Norte 24 Norte 0 -- -- 82
2020-05-22 01:00:00 19.2 22 Norte 33 Norte 0 -- -- 82
2020-05-22 00:00:00 19.4 24 Norte 36 Norte 0 -- -- 82
2020-05-21 23:00:00 19.5 23 Norte 31 Norte 0 -- -- 81
2020-05-21 22:00:00 19.8 18 Norte 35 Norte 0 -- -- 79
2020-05-21 21:00:00 19.8 31 Norte 50 Norte 0 -- -- 76
2020-05-21 20:00:00 20.4 28 Norte 46 Noroeste 0 -- -- 71
2020-05-21 19:00:00 20.6 35 Noroeste 62 Noroeste 0 -- -- 68
2020-05-21 18:00:00 21 35 Noroeste 59 Norte 0 -- -- 68
2020-05-21 17:00:00 21.3 37 Norte 48 Noroeste 0 -- -- 67
2020-05-21 16:00:00 21.4 33 Norte 42 Norte 0 -- -- 68
2020-05-21 15:00:00 21.7 28 Norte 39 Norte 0 -- -- 67
2020-05-21 14:00:00 21.4 28 Norte 39 Noroeste 0 -- -- 69
2020-05-21 13:00:00 21.2 30 Norte 40 Norte 0 -- -- 68
2020-05-21 12:00:00 21.7 23 Noroeste 35 Norte 0 -- -- 64
2020-05-21 11:00:00 21.8 8 Norte 21 Norte 0 -- -- 60
2020-05-21 10:00:00 21.4 10 Norte 24 Norte 0 -- -- 66
2020-05-21 09:00:00 19.8 19 Norte 33 Norte 0 -- -- 80
2020-05-21 08:00:00 19.2 31 Norte 46 Norte 0 -- -- 84
2020-05-21 07:00:00 18.7 27 Norte 38 Norte 0 -- -- 86
2020-05-21 06:00:00 18.8 27 Norte 40 Norte 0 -- -- 86
2020-05-21 05:00:00 19 32 Norte 54 Norte 0 -- -- 86
2020-05-21 04:00:00 19.2 22 Norte 34 Norte 0 -- -- 85
2020-05-21 03:00:00 19.3 29 Norte 36 Norte 0 -- -- 85
2020-05-21 02:00:00 19.6 14 Norte 22 Norte 0 -- -- 81
2020-05-21 01:00:00 19.6 6 Nordeste 14 Norte 0 -- -- 76
2020-05-21 00:00:00 19.8 14 Norte 28 Norte 0 -- -- 82
2020-05-20 23:00:00 20 21 Norte 33 Norte 0 -- -- 84
2020-05-20 22:00:00 20.2 25 Norte 41 Noroeste 0 -- -- 85
2020-05-20 21:00:00 20.4 24 Norte 38 Norte 0 -- -- 85
2020-05-20 20:00:00 21.1 27 Norte 38 Noroeste 0 -- -- 80
2020-05-20 19:00:00 21.7 30 Norte 44 Norte 0 -- -- 75
2020-05-20 18:00:00 22.2 31 Norte 50 Norte 0 -- -- 71
2020-05-20 17:00:00 22.5 35 Norte 50 Noroeste 0 -- -- 69
2020-05-20 16:00:00 23.4 10 Este 27 Nordeste 0 -- -- 64
2020-05-20 15:00:00 23 15 Nordeste 24 Nordeste 0 -- -- 66
2020-05-20 14:00:00 23.1 13 Norte 28 Norte 0 -- -- 67
2020-05-20 13:00:00 23.2 6 Nordeste 20 Nordeste 0 -- -- 64
2020-05-20 12:00:00 24 7 Norte 14 Noroeste 0 -- -- 57
2020-05-20 11:00:00 22.7 7 Sudeste 11 Sudeste 0 -- -- 66
2020-05-20 10:00:00 21.7 12 Norte 32 Norte 0 -- -- 83
2020-05-20 09:00:00 20.5 27 Norte 36 Norte 0 -- -- 86
2020-05-20 08:00:00 20 21 Norte 29 Norte 0 -- -- 88
2020-05-20 07:00:00 19.6 23 Norte 34 Norte 0 -- -- 90
2020-05-20 06:00:00 19.7 23 Norte 32 Norte 0 -- -- 91
2020-05-20 05:00:00 19.6 22 Norte 31 Norte 0 -- -- 91
2020-05-20 04:00:00 19.8 22 Noroeste 31 Noroeste 0 -- -- 92
2020-05-20 03:00:00 19.8 22 Noroeste 29 Noroeste 0 -- -- 91
2020-05-20 02:00:00 19.8 18 Norte 26 Norte 0 -- -- 90
2020-05-20 01:00:00 19.9 16 Norte 27 Norte 0 -- -- 89
2020-05-20 00:00:00 20.1 20 Norte 29 Norte 0 -- -- 88
2020-05-19 23:00:00 20.2 21 Noroeste 31 Noroeste 0 -- -- 86
2020-05-19 22:00:00 20.3 23 Noroeste 35 Noroeste 0 -- -- 84
2020-05-19 21:00:00 20.5 23 Noroeste 41 Noroeste 0 -- -- 83
2020-05-19 20:00:00 20.8 25 Noroeste 36 Noroeste 0 -- -- 79
2020-05-19 19:00:00 21.4 26 Noroeste 36 Noroeste 0 -- -- 76
2020-05-19 18:00:00 21.8 26 Noroeste 37 Noroeste 0 -- -- 75
2020-05-19 17:00:00 22.5 19 Noroeste 33 Noroeste 0 -- -- 74
2020-05-19 16:00:00 22.6 19 Noroeste 32 Oeste 0 -- -- 77
2020-05-19 15:00:00 22.3 19 Noroeste 34 Oeste 0 -- -- 79
2020-05-19 14:00:00 22 20 Noroeste 30 Oeste 0 -- -- 77
2020-05-19 13:00:00 21.6 22 Noroeste 31 Noroeste 0 -- -- 77
2020-05-19 12:00:00 21.3 23 Noroeste 33 Noroeste 0 -- -- 80
2020-05-19 11:00:00 21.2 21 Noroeste 32 Noroeste 0 -- -- 82
2020-05-19 10:00:00 20.7 22 Noroeste 32 Noroeste 0 -- -- 85
2020-05-19 09:00:00 20.1 22 Noroeste 30 Noroeste 0 -- -- 87
2020-05-19 08:00:00 19.7 21 Noroeste 33 Noroeste 0 -- -- 89
2020-05-19 07:00:00 19.4 23 Noroeste 35 Noroeste 0 -- -- 90
2020-05-19 06:00:00 19.2 24 Noroeste 40 Noroeste 0 -- -- 92
2020-05-19 05:00:00 19.1 19 Norte 30 Noroeste 0 -- -- 94
2020-05-19 04:00:00 19.4 22 Norte 30 Norte 0 -- -- 94
2020-05-19 03:00:00 19.6 19 Norte 26 Norte 0 -- -- 93
2020-05-19 02:00:00 19.9 17 Norte 22 Norte 0 -- -- 90
2020-05-19 01:00:00 20 13 Norte 17 Norte 0 -- -- 87
2020-05-19 00:00:00 20.1 14 Norte 22 Norte 0 -- -- 87
2020-05-18 23:00:00 20.2 11 Nordeste 26 Norte 0 -- -- 88
2020-05-18 22:00:00 20 21 Norte 34 Noroeste 0 -- -- 90
2020-05-18 21:00:00 20.2 25 Norte 36 Norte 0 -- -- 88
2020-05-18 20:00:00 20.7 26 Norte 40 Noroeste 0 -- -- 85
2020-05-18 19:00:00 21.3 26 Norte 38 Noroeste 0 -- -- 84
2020-05-18 18:00:00 21.3 29 Norte 38 Norte 0 -- -- 84
2020-05-18 17:00:00 21.8 30 Norte 41 Norte 0 -- -- 80
2020-05-18 16:00:00 21.3 28 Norte 42 Norte 0 -- -- 80
2020-05-18 15:00:00 21 27 Norte 41 Noroeste 0 -- -- 82
2020-05-18 14:00:00 21 28 Norte 37 Norte 0 -- -- 81
2020-05-18 13:00:00 20.6 28 Noroeste 39 Noroeste 0 -- -- 81
2020-05-18 12:00:00 20.2 28 Noroeste 37 Norte 0 -- -- 80
2020-05-18 11:00:00 20.3 24 Norte 33 Norte 0 -- -- 80
2020-05-18 10:00:00 19.9 23 Norte 32 Norte 0 -- -- 80
2020-05-18 09:00:00 19.6 25 Norte 31 Norte 0 -- -- 79
2020-05-18 08:00:00 19.1 24 Norte 31 Norte 0 -- -- 79
2020-05-18 07:00:00 18.8 23 Norte 31 Norte 0 -- -- 79
2020-05-18 06:00:00 18.8 24 Norte 36 Norte 0 -- -- 78
2020-05-18 05:00:00 18.8 21 Norte 30 Norte 0 -- -- 74
2020-05-18 04:00:00 18.9 18 Norte 24 Norte 0 -- -- 71
2020-05-18 03:00:00 19 19 Norte 26 Norte 0 -- -- 67
2020-05-18 02:00:00 19 17 Norte 29 Nordeste 0 -- -- 67
2020-05-18 01:00:00 19.3 15 Norte 30 Norte 0 -- -- 67
2020-05-18 00:00:00 19.5 14 Norte 24 Norte 0 -- -- 66
2020-05-17 23:00:00 19.4 19 Norte 36 Norte 0 -- -- 67
2020-05-17 22:00:00 19.7 28 Norte 41 Norte 0 -- -- 69
2020-05-17 21:00:00 19.9 29 Norte 40 Norte 0 -- -- 70
2020-05-17 20:00:00 20.4 27 Norte 49 Noroeste 0 -- -- 70
2020-05-17 19:00:00 20.7 33 Norte 45 Norte 0 -- -- 68
2020-05-17 18:00:00 20.8 36 Noroeste 45 Noroeste 0 -- -- 67
2020-05-17 17:00:00 20.8 37 Norte 54 Noroeste 0 -- -- 67
2020-05-17 16:00:00 20.9 36 Norte 59 Norte 0 -- -- 66
2020-05-17 15:00:00 20.7 36 Norte 45 Norte 0 -- -- 68
2020-05-17 14:00:00 20.7 33 Norte 46 Norte 0 -- -- 68
2020-05-17 13:00:00 20.8 28 Norte 37 Noroeste 0 -- -- 65
2020-05-17 12:00:00 20.3 18 Norte 25 Nordeste 0 -- -- 63
2020-05-17 11:00:00 20 10 Norte 30 Norte 0 -- -- 65
2020-05-17 10:00:00 20.1 21 Norte 33 Norte 0 -- -- 65
2020-05-17 09:00:00 19.4 15 Norte 29 Norte 0 -- -- 66
2020-05-17 08:00:00 19.6 24 Norte 32 Norte 0 -- -- 67
2020-05-17 07:00:00 18.9 15 Norte 22 Nordeste 0 -- -- 71
2020-05-17 06:00:00 18.8 14 Nordeste 24 Nordeste 0 -- -- 70
2020-05-17 05:00:00 18.5 17 Norte 29 Norte 0 -- -- 72
2020-05-17 04:00:00 18.8 19 Norte 31 Norte 0 -- -- 70
2020-05-17 03:00:00 18.9 21 Norte 32 Norte 0 -- -- 69
2020-05-17 02:00:00 19.1 27 Norte 33 Norte 0 -- -- 68
2020-05-17 01:00:00 19.2 22 Norte 31 Norte 0 -- -- 66
2020-05-17 00:00:00 19.2 26 Norte 34 Norte 0 -- -- 67
2020-05-16 23:00:00 19.4 27 Norte 44 Norte 0 -- -- 66
2020-05-16 22:00:00 19.4 28 Norte 39 Norte 0 -- -- 66
2020-05-16 21:00:00 19.3 29 Norte 40 Norte 0 -- -- 63
2020-05-16 20:00:00 20 30 Norte 44 Norte 0 -- -- 62
2020-05-16 19:00:00 20.8 30 Norte 42 Norte 0 -- -- 58
2020-05-16 18:00:00 20.9 33 Norte 48 Norte 0 -- -- 60
2020-05-16 17:00:00 21.3 32 Norte 42 Norte 0 -- -- 57
2020-05-16 16:00:00 21.3 31 Norte 44 Norte 0 -- -- 54
2020-05-16 15:00:00 21 27 Norte 38 Norte 0 -- -- 58
2020-05-16 14:00:00 21.2 27 Norte 37 Noroeste 0 -- -- 54
2020-05-16 13:00:00 20.8 29 Norte 38 Norte 0 -- -- 53
2020-05-16 12:00:00 21.1 27 Norte 41 Norte 0 -- -- 47
2020-05-16 11:00:00 20.9 22 Noroeste 35 Norte 0 -- -- 46
2020-05-16 10:00:00 20.3 28 Norte 38 Norte 0 -- -- 49
2020-05-16 09:00:00 19.3 27 Norte 46 Norte 0 -- -- 56
2020-05-16 08:00:00 19.2 22 Noroeste 34 Norte 0 -- -- 56
2020-05-16 07:00:00 18.8 27 Norte 42 Norte 0 -- -- 59
2020-05-16 06:00:00 18.9 29 Norte 39 Norte 0 -- -- 64
2020-05-16 05:00:00 18.7 23 Norte 36 Norte 0 -- -- 68
2020-05-16 04:00:00 18.9 27 Norte 35 Norte 0 -- -- 66
2020-05-16 03:00:00 19 29 Norte 48 Norte 0 -- -- 67
2020-05-16 02:00:00 19.1 33 Norte 43 Norte 0 -- -- 69
2020-05-16 01:00:00 19.2 28 Norte 39 Norte 0 -- -- 71
2020-05-16 00:00:00 19.5 24 Norte 39 Norte 0 -- -- 70
2020-05-15 23:00:00 19.5 28 Norte 40 Noroeste 0 -- -- 68
2020-05-15 22:00:00 19.6 27 Norte 37 Noroeste 0 -- -- 67
2020-05-15 21:00:00 19.6 28 Norte 41 Norte 0 -- -- 67
2020-05-15 20:00:00 20 30 Norte 42 Noroeste 0 -- -- 64
2020-05-15 19:00:00 20.4 30 Noroeste 40 Noroeste 0 -- -- 60
2020-05-15 18:00:00 20.8 30 Noroeste 45 Norte 0 -- -- 57
2020-05-15 17:00:00 20.9 27 Noroeste 40 Norte 0 -- -- 57
2020-05-15 16:00:00 21.3 26 Noroeste 44 Noroeste 0 -- -- 58
2020-05-15 15:00:00 21.5 30 Noroeste 40 Noroeste 0 -- -- 58
2020-05-15 14:00:00 21.2 26 Noroeste 43 Noroeste 0 -- -- 54
2020-05-15 13:00:00 21.2 27 Noroeste 46 Noroeste 0 -- -- 60
2020-05-15 12:00:00 20.8 31 Noroeste 44 Noroeste 0 -- -- 62
2020-05-15 11:00:00 20.1 29 Noroeste 43 Noroeste 0 -- -- 68
2020-05-15 10:00:00 19.9 29 Noroeste 44 Noroeste 0 -- -- 67
2020-05-15 09:00:00 19.2 26 Noroeste 46 Noroeste 0 -- -- 68
2020-05-15 08:00:00 18.8 27 Noroeste 45 Noroeste 0 -- -- 69
2020-05-15 07:00:00 18.9 22 Oeste 39 Oeste 0 -- -- 62
2020-05-15 06:00:00 18.7 26 Noroeste 40 Oeste 0 -- -- 58
2020-05-15 05:00:00 18.6 23 Noroeste 39 Noroeste 0 -- -- 56
2020-05-15 04:00:00 18.7 25 Noroeste 38 Noroeste 0 -- -- 55
2020-05-15 03:00:00 18.7 26 Noroeste 44 Noroeste 0 -- -- 52
2020-05-15 02:00:00 18.7 28 Noroeste 52 Noroeste 0 -- -- 53
2020-05-15 01:00:00 18.8 28 Noroeste 45 Oeste 0 -- -- 51
2020-05-15 00:00:00 19 27 Noroeste 48 Noroeste 0 -- -- 52
2020-05-14 23:00:00 18.9 28 Noroeste 47 Noroeste 0 -- -- 53
2020-05-14 22:00:00 19.1 30 Noroeste 53 Noroeste 0 -- -- 57
2020-05-14 21:00:00 19.1 32 Noroeste 62 Oeste 0 -- -- 59
2020-05-14 20:00:00 19.6 33 Noroeste 49 Noroeste 0 -- -- 54
2020-05-14 19:00:00 20.1 31 Noroeste 53 Noroeste 0 -- -- 54
2020-05-14 18:00:00 20.5 36 Noroeste 52 Noroeste 0 -- -- 47
2020-05-14 17:00:00 20.9 35 Noroeste 53 Oeste 0 -- -- 48
2020-05-14 16:00:00 21.1 36 Noroeste 50 Noroeste 0 -- -- 45
2020-05-14 15:00:00 21.2 36 Oeste 48 Oeste 0 -- -- 45
2020-05-14 14:00:00 21.1 33 Oeste 50 Oeste 0 -- -- 46
2020-05-14 13:00:00 20.7 28 Noroeste 45 Oeste 0 -- -- 54
2020-05-14 12:00:00 20.8 26 Noroeste 46 Oeste 0 -- -- 57
2020-05-14 11:00:00 20.9 31 Oeste 44 Oeste 0 -- -- 46
2020-05-14 10:00:00 20.6 28 Oeste 45 Oeste 0 -- -- 48
2020-05-14 09:00:00 19.8 26 Noroeste 40 Oeste 0 -- -- 56
2020-05-14 08:00:00 19.4 25 Noroeste 48 Noroeste 0 -- -- 63
2020-05-14 07:00:00 19.2 25 Oeste 39 Oeste 0 -- -- 53
2020-05-14 06:00:00 19 27 Oeste 48 Oeste 0 -- -- 61
2020-05-14 05:00:00 19.1 20 Oeste 35 Oeste 0 -- -- 60
2020-05-14 04:00:00 18.9 20 Oeste 32 Oeste 0 -- -- 55
2020-05-14 03:00:00 19 18 Oeste 31 Noroeste 0 -- -- 59
2020-05-14 02:00:00 19 20 Noroeste 34 Noroeste 0 -- -- 55
2020-05-14 01:00:00 19.4 23 Noroeste 36 Noroeste 0 -- -- 49
2020-05-14 00:00:00 19.3 24 Noroeste 39 Oeste 0 -- -- 60
2020-05-13 23:00:00 19.5 19 Noroeste 32 Noroeste 0 -- -- 51
2020-05-13 22:00:00 19.5 21 Noroeste 35 Noroeste 0 -- -- 50
2020-05-13 21:00:00 19.6 25 Noroeste 40 Noroeste 0 -- -- 56
2020-05-13 20:00:00 -- 22 Noroeste 41 Noroeste 0 -- -- --
2020-05-13 19:00:00 20.3 26 Noroeste 40 Noroeste 0 -- -- 56
2020-05-13 18:00:00 20.9 26 Noroeste 45 Noroeste 0 -- -- 56
2020-05-13 17:00:00 21 24 Noroeste 43 Noroeste 0 -- -- 60
2020-05-13 16:00:00 20.8 25 Noroeste 43 Noroeste 0 -- -- 67
2020-05-13 15:00:00 19.6 32 Noroeste 63 Noroeste 0 -- -- 73
2020-05-13 14:00:00 22 35 Oeste 52 Oeste 0 -- -- 58
2020-05-13 13:00:00 21.5 33 Oeste 49 Oeste 0 -- -- 61
2020-05-13 12:00:00 21.1 23 Oeste 35 Oeste 0 -- -- 67
2020-05-13 11:00:00 20.1 19 Oeste 45 Noroeste 0 -- -- 74
2020-05-13 10:00:00 20 21 Oeste 35 Noroeste 0 -- -- 66
2020-05-13 09:00:00 20.1 23 Oeste 44 Oeste 0 -- -- 65
2020-05-13 08:00:00 19.8 19 Oeste 32 Noroeste 0 -- -- 67
2020-05-13 07:00:00 19.3 21 Noroeste 32 Noroeste 0 -- -- 71
2020-05-13 06:00:00 19.4 18 Noroeste 35 Noroeste 0 -- -- 70
2020-05-13 05:00:00 19.3 17 Noroeste 28 Oeste 0 -- -- 72
2020-05-13 04:00:00 19.4 20 Noroeste 32 Oeste 0 -- -- 74
2020-05-13 03:00:00 19.7 22 Noroeste 35 Oeste 0 -- -- 70
2020-05-13 02:00:00 19.7 19 Noroeste 39 Noroeste 0 -- -- 69
2020-05-13 01:00:00 19.7 23 Noroeste 38 Noroeste 0 -- -- 69
2020-05-13 00:00:00 19.9 23 Noroeste 37 Noroeste 0 -- -- 68
2020-05-12 23:00:00 20 25 Noroeste 42 Noroeste 0 -- -- 67
2020-05-12 22:00:00 20.1 24 Noroeste 40 Noroeste 0 -- -- 68
2020-05-12 21:00:00 20 24 Noroeste 42 Oeste 0 -- -- 70
2020-05-12 20:00:00 20.1 25 Noroeste 43 Noroeste 0 -- -- 67
2020-05-12 19:00:00 20.1 21 Noroeste 51 Noroeste 0 -- -- 69
2020-05-12 18:00:00 21.1 26 Noroeste 44 Oeste 0 -- -- 59
2020-05-12 17:00:00 21.6 26 Noroeste 44 Noroeste 0 -- -- 57
2020-05-12 16:00:00 21.3 29 Noroeste 42 Oeste 0 -- -- 53
2020-05-12 15:00:00 21.6 24 Noroeste 38 Oeste 0 -- -- 53
2020-05-12 14:00:00 22 21 Noroeste 37 Oeste 0 -- -- 52
2020-05-12 13:00:00 21.6 22 Noroeste 33 Noroeste 0 -- -- 49
2020-05-12 12:00:00 21.3 19 Noroeste 31 Noroeste 0 -- -- 52
2020-05-12 11:00:00 20.6 24 Noroeste 33 Noroeste 0 -- -- 60
2020-05-12 10:00:00 20.8 18 Noroeste 36 Noroeste 0 -- -- 58
2020-05-12 09:00:00 19.7 24 Noroeste 39 Noroeste 0 -- -- 61
2020-05-12 08:00:00 19 14 Noroeste 28 Noroeste 0 -- -- 66
2020-05-12 07:00:00 19.5 18 Noroeste 31 Noroeste 0 -- -- 59
2020-05-12 06:00:00 19.4 18 Noroeste 36 Noroeste 0 -- -- 61
2020-05-12 05:00:00 19.5 24 Noroeste 37 Noroeste 0 -- -- 61
2020-05-12 04:00:00 19.5 21 Noroeste 33 Noroeste 0 -- -- 62
2020-05-12 03:00:00 19.6 21 Noroeste 39 Noroeste 0 -- -- 58
2020-05-12 02:00:00 19.6 25 Noroeste 40 Noroeste 0 -- -- 60
2020-05-12 01:00:00 19.8 24 Noroeste 37 Noroeste 0 -- -- 59
2020-05-12 00:00:00 19.7 24 Noroeste 42 Noroeste 0 -- -- 59
2020-05-11 23:00:00 19.7 29 Noroeste 50 Noroeste 0 -- -- 65
2020-05-11 22:00:00 20.5 27 Noroeste 43 Noroeste 0 -- -- 71
2020-05-11 21:00:00 20.8 19 Oeste 33 Noroeste 0 -- -- 73
2020-05-11 20:00:00 20.9 24 Noroeste 40 Noroeste 0 -- -- 71
2020-05-11 19:00:00 21.6 22 Noroeste 37 Noroeste 0 -- -- 68
2020-05-11 18:00:00 22 21 Noroeste 35 Noroeste 0 -- -- 64
2020-05-11 17:00:00 22.5 26 Noroeste 44 Noroeste 0 -- -- 66
2020-05-11 16:00:00 22.5 24 Oeste 34 Oeste 0 -- -- 63
2020-05-11 15:00:00 22.7 22 Oeste 35 Oeste 0 -- -- 63
2020-05-11 14:00:00 22.5 21 Oeste 32 Oeste 0 -- -- 56
2020-05-11 13:00:00 22 21 Noroeste 31 Oeste 0 -- -- 62
2020-05-11 12:00:00 22.2 14 Noroeste 20 Noroeste 0 -- -- 60
2020-05-11 11:00:00 21.8 13 Noroeste 22 Noroeste 0 -- -- 63
2020-05-11 10:00:00 21.1 17 Norte 23 Noroeste 0 -- -- 69
2020-05-11 09:00:00 20.6 14 Norte 27 Noroeste 0 -- -- 72
2020-05-11 08:00:00 19.8 22 Norte 30 Norte 0 -- -- 74
2020-05-11 07:00:00 19.9 19 Noroeste 26 Noroeste 0 -- -- 76
2020-05-11 06:00:00 19.9 19 Noroeste 31 Norte 0 -- -- 73
2020-05-11 05:00:00 19.8 20 Noroeste 32 Noroeste 0 -- -- 75
2020-05-11 04:00:00 19.5 19 Noroeste 26 Noroeste 0 -- -- 75
2020-05-11 03:00:00 19.5 20 Noroeste 29 Norte 0 -- -- 73
2020-05-11 02:00:00 19.7 19 Norte 33 Norte 0 -- -- 75
2020-05-11 01:00:00 19.6 24 Norte 33 Norte 0 -- -- 75
2020-05-11 00:00:00 19.8 26 Norte 37 Norte 0 -- -- 76
2020-05-10 23:00:00 19.8 26 Norte 38 Noroeste 0 -- -- 77
2020-05-10 22:00:00 20 27 Norte 44 Norte 0 -- -- 78
2020-05-10 21:00:00 20.2 30 Norte 40 Norte 0 -- -- 78
2020-05-10 20:00:00 20.8 26 Norte 35 Noroeste 0 -- -- 75
2020-05-10 19:00:00 21.2 28 Noroeste 37 Noroeste 0 -- -- 69
2020-05-10 18:00:00 21.7 26 Noroeste 34 Noroeste 0 -- -- 69
2020-05-10 17:00:00 22 23 Noroeste 37 Noroeste 0 -- -- 64
2020-05-10 16:00:00 22.2 22 Noroeste 32 Noroeste 0 -- -- 66
2020-05-10 15:00:00 21.8 22 Noroeste 32 Noroeste 0 -- -- 66
2020-05-10 14:00:00 22.4 18 Noroeste 30 Noroeste 0 -- -- 62
2020-05-10 13:00:00 21.7 19 Noroeste 27 Noroeste 0 -- -- 64
2020-05-10 12:00:00 21.2 21 Noroeste 33 Noroeste 0 -- -- 64
2020-05-10 11:00:00 21.2 18 Noroeste 30 Noroeste 0 -- -- 65
2020-05-10 10:00:00 20.7 22 Noroeste 33 Noroeste 0 -- -- 66
2020-05-10 09:00:00 20.1 21 Noroeste 34 Noroeste 0 -- -- 69
2020-05-10 08:00:00 19.7 22 Noroeste 31 Noroeste 0 -- -- 72
2020-05-10 07:00:00 19.6 22 Norte 31 Noroeste 0 -- -- 69
2020-05-10 06:00:00 19.7 21 Norte 28 Norte 0 -- -- 68
2020-05-10 05:00:00 19.6 20 Norte 35 Noroeste 0 -- -- 70
2020-05-10 04:00:00 19.7 25 Norte 32 Noroeste 0 -- -- 72
2020-05-10 03:00:00 19.8 23 Noroeste 34 Noroeste 0 -- -- 69
2020-05-10 02:00:00 19.8 23 Noroeste 33 Noroeste 0 -- -- 72
2020-05-10 01:00:00 20 24 Norte 37 Norte 0 -- -- 72
2020-05-10 00:00:00 20.1 24 Norte 36 Norte 0 -- -- 76
2020-05-09 23:00:00 20.2 22 Norte 31 Noroeste 0 -- -- 76
2020-05-09 22:00:00 20.2 24 Norte 33 Noroeste 0 -- -- 73
2020-05-09 21:00:00 20.3 27 Norte 36 Noroeste 0 -- -- 73
2020-05-09 20:00:00 21 25 Noroeste 37 Noroeste 0 -- -- 72
2020-05-09 19:00:00 21.7 22 Noroeste 41 Noroeste 0 -- -- 71
2020-05-09 18:00:00 22.3 18 Noroeste 31 Oeste 0 -- -- 68
2020-05-09 17:00:00 21.8 18 Noroeste 28 Oeste 0 -- -- 70
2020-05-09 16:00:00 21.9 19 Noroeste 29 Noroeste 0 -- -- 63
2020-05-09 15:00:00 20.7 22 Oeste 37 Oeste 0 -- -- 76
2020-05-09 14:00:00 22.4 16 Noroeste 27 Noroeste 0 -- -- 62
2020-05-09 13:00:00 22 17 Noroeste 27 Noroeste 0 -- -- 63
2020-05-09 12:00:00 22 14 Noroeste 23 Noroeste 0 -- -- 62
2020-05-09 11:00:00 21.3 10 Noroeste 17 Noroeste 0 -- -- 64
2020-05-09 10:00:00 21 14 Noroeste 24 Noroeste 0 -- -- 65
2020-05-09 09:00:00 20.6 15 Noroeste 22 Noroeste 0 -- -- 66
2020-05-09 08:00:00 19.9 18 Noroeste 28 Noroeste 0 -- -- 68
2020-05-09 07:00:00 19.3 18 Noroeste 28 Noroeste 0 -- -- 69
2020-05-09 06:00:00 19.3 15 Noroeste 22 Noroeste 0 -- -- 68
2020-05-09 05:00:00 19.2 17 Noroeste 28 Noroeste 0 -- -- 68
2020-05-09 04:00:00 19.2 14 Noroeste 22 Noroeste 0 -- -- 69
2020-05-09 03:00:00 19.4 11 Norte 19 Noroeste 0 -- -- 72
2020-05-09 02:00:00 19.5 15 Norte 21 Norte 0 -- -- 72
2020-05-09 01:00:00 19.6 15 Norte 23 Norte 0 -- -- 72
2020-05-09 00:00:00 19.6 15 Norte 23 Norte 0 -- -- 72
2020-05-08 23:00:00 19.7 16 Norte 23 Norte 0 -- -- 71
2020-05-08 22:00:00 19.8 18 Norte 24 Noroeste 0 -- -- 68
2020-05-08 21:00:00 19.9 16 Noroeste 25 Noroeste 0 -- -- 66
2020-05-08 20:00:00 20.5 21 Noroeste 32 Noroeste 0 -- -- 65
2020-05-08 19:00:00 20.8 24 Noroeste 39 Noroeste 0 -- -- 62
2020-05-08 18:00:00 21 27 Noroeste 43 Noroeste 0 -- -- 61
2020-05-08 17:00:00 21.4 23 Noroeste 35 Noroeste 0 -- -- 62
2020-05-08 16:00:00 21.5 24 Noroeste 40 Noroeste 0 -- -- 62
2020-05-08 15:00:00 21.7 21 Noroeste 32 Noroeste 0 -- -- 62
2020-05-08 14:00:00 21.3 23 Noroeste 35 Noroeste 0 -- -- 62
2020-05-08 13:00:00 21.4 22 Noroeste 30 Noroeste 0 -- -- 59
2020-05-08 12:00:00 21.3 20 Noroeste 27 Noroeste 0 -- -- 60
2020-05-08 11:00:00 20.9 20 Noroeste 30 Norte 0 -- -- 64
2020-05-08 10:00:00 20.9 19 Norte 24 Norte 0 -- -- 66
2020-05-08 09:00:00 20.1 18 Norte 24 Norte 0 -- -- 70
2020-05-08 08:00:00 19.7 17 Norte 27 Norte 0 -- -- 72
2020-05-08 07:00:00 19.2 20 Norte 27 Norte 0 -- -- 74
2020-05-08 06:00:00 19.1 15 Norte 27 Norte 0 -- -- 74
2020-05-08 05:00:00 19.3 19 Norte 30 Norte 0 -- -- 75
2020-05-08 04:00:00 19.3 17 Norte 24 Norte 0 -- -- 73
2020-05-08 03:00:00 19.4 17 Norte 24 Norte 0 -- -- 71
2020-05-08 02:00:00 19.5 18 Norte 30 Norte 0 -- -- 70
2020-05-08 01:00:00 19.6 18 Norte 25 Norte 0 -- -- 70
2020-05-08 00:00:00 19.7 19 Norte 29 Noroeste 0 -- -- 70
2020-05-07 23:00:00 19.7 19 Norte 27 Norte 0 -- -- 70
2020-05-07 22:00:00 19.8 21 Norte 30 Norte 0 -- -- 69
2020-05-07 21:00:00 19.8 19 Norte 30 Noroeste 0 -- -- 68
2020-05-07 20:00:00 20.3 23 Norte 31 Norte 0 -- -- 65
2020-05-07 19:00:00 21 22 Norte 34 Norte 0 -- -- 64
2020-05-07 18:00:00 21.1 25 Noroeste 35 Noroeste 0 -- -- 61
2020-05-07 17:00:00 21.3 24 Noroeste 39 Noroeste 0 -- -- 62
2020-05-07 16:00:00 21.5 26 Noroeste 37 Noroeste 0 -- -- 61
2020-05-07 15:00:00 21.6 27 Noroeste 42 Norte 0 -- -- 60
2020-05-07 14:00:00 21.5 26 Noroeste 36 Noroeste 0 -- -- 60
2020-05-07 13:00:00 21.2 27 Noroeste 41 Noroeste 0 -- -- 63
2020-05-07 12:00:00 21.2 23 Noroeste 31 Noroeste 0 -- -- 61
2020-05-07 11:00:00 20.8 23 Noroeste 28 Noroeste 0 -- -- 65
2020-05-07 10:00:00 20.6 11 Norte 17 Norte 0 -- -- 65
2020-05-07 09:00:00 19.8 14 Norte 19 Norte 0 -- -- 68
2020-05-07 08:00:00 19.2 13 Norte 18 Norte 0 -- -- 74
2020-05-07 07:00:00 18.5 15 Norte 19 Norte 0 -- -- 76
2020-05-07 06:00:00 18.6 12 Norte 16 Norte 0 -- -- 72
2020-05-07 05:00:00 18.7 11 Norte 15 Norte 0 -- -- 72
2020-05-07 04:00:00 18.7 12 Norte 23 Norte 0 -- -- 70
2020-05-07 03:00:00 18.8 6 Norte 11 Norte 0 -- -- 70
2020-05-07 02:00:00 19.1 9 Norte 18 Norte 0 -- -- 70
2020-05-07 01:00:00 19.3 15 Norte 22 Norte 0 -- -- 68
2020-05-07 00:00:00 19.4 18 Norte 30 Norte 0 -- -- 67
2020-05-06 23:00:00 19.5 21 Norte 28 Norte 0 -- -- 67
2020-05-06 22:00:00 19.6 23 Norte 33 Norte 0 -- -- 65
2020-05-06 21:00:00 19.8 27 Norte 36 Norte 0 -- -- 67
2020-05-06 20:00:00 20.2 26 Norte 34 Noroeste 0 -- -- 65
2020-05-06 19:00:00 20.9 27 Noroeste 33 Noroeste 0 -- -- 60
2020-05-06 18:00:00 21.7 5 Norte 28 Noroeste 0 -- -- 54
2020-05-06 17:00:00 21.3 20 Noroeste 32 Norte 0 -- -- 57
2020-05-06 16:00:00 22.8 6 Este 15 Este 0 -- -- 52
2020-05-06 15:00:00 22.5 13 Nordeste 23 Nordeste 0 -- -- 52
2020-05-06 14:00:00 21.5 14 Nordeste 23 Norte 0 -- -- 58
2020-05-06 13:00:00 21.8 13 Nordeste 27 Nordeste 0 -- -- 58
2020-05-06 12:00:00 22.5 14 Este 19 Este 0 -- -- 55
2020-05-06 11:00:00 21.7 8 Nordeste 13 Nordeste 0 -- -- 53
2020-05-06 10:00:00 21.7 5 Nordeste 12 Norte 0 -- -- 53
2020-05-06 09:00:00 20.3 7 Nordeste 20 Norte 0 -- -- 59
2020-05-06 08:00:00 19.2 13 Norte 21 Norte 0 -- -- 65
2020-05-06 07:00:00 18.7 12 Norte 19 Norte 0 -- -- 67
2020-05-06 06:00:00 18.8 14 Norte 23 Norte 0 -- -- 65
2020-05-06 05:00:00 19 13 Norte 21 Nordeste 0 -- -- 63
2020-05-06 04:00:00 19.1 17 Norte 24 Norte 0 -- -- 61
2020-05-06 03:00:00 19 15 Nordeste 25 Nordeste 0 -- -- 60
2020-05-06 02:00:00 19.2 14 Nordeste 25 Nordeste 0 -- -- 61
2020-05-06 01:00:00 19.4 17 Nordeste 23 Nordeste 0 -- -- 64
2020-05-06 00:00:00 19.5 14 Nordeste 30 Norte 0 -- -- 64
2020-05-05 23:00:00 19.9 24 Norte 33 Norte 0 -- -- 66
2020-05-05 22:00:00 20 26 Norte 39 Norte 0 -- -- 66
2020-05-05 21:00:00 20.2 25 Norte 37 Norte 0 -- -- 66
2020-05-05 20:00:00 20.5 27 Norte 38 Noroeste 0 -- -- 63
2020-05-05 19:00:00 21 32 Noroeste 43 Noroeste 0 -- -- 61
2020-05-05 18:00:00 21.7 29 Noroeste 40 Norte 0 -- -- 59
2020-05-05 17:00:00 22.3 6 Nordeste 12 Norte 0 -- -- 53
2020-05-05 16:00:00 21.9 9 Nordeste 14 Nordeste 0 -- -- 56
2020-05-05 15:00:00 22.4 7 Nordeste 13 Nordeste 0 -- -- 55
2020-05-05 14:00:00 22.3 8 Nordeste 13 Nordeste 0 -- -- 54
2020-05-05 13:00:00 23.1 6 Este 32 Norte 0 -- -- 50
2020-05-05 12:00:00 21.7 21 Norte 35 Noroeste 0 -- -- 55
2020-05-05 11:00:00 21.6 14 Norte 29 Norte 0 -- -- 54
2020-05-05 10:00:00 20.6 19 Norte 29 Norte 0 -- -- 61
2020-05-05 09:00:00 20.1 13 Norte 18 Norte 0 -- -- 66
2020-05-05 08:00:00 19.3 13 Norte 18 Norte 0 -- -- 75
2020-05-05 07:00:00 18.9 14 Norte 20 Norte 0 -- -- 77
2020-05-05 06:00:00 19.1 17 Norte 25 Norte 0 -- -- 76
2020-05-05 05:00:00 19.1 14 Norte 20 Norte 0 -- -- 77
2020-05-05 04:00:00 19.3 12 Norte 17 Norte 0 -- -- 76
2020-05-05 03:00:00 19.5 12 Norte 22 Norte 0 -- -- 78
2020-05-05 02:00:00 19.8 13 Norte 21 Norte 0 -- -- 76
2020-05-05 01:00:00 19.9 10 Norte 17 Norte 0 -- -- 78
2020-05-05 00:00:00 20.1 15 Norte 23 Norte 0 -- -- 79
2020-05-04 23:00:00 20.2 17 Norte 29 Noroeste 0 -- -- 81
2020-05-04 22:00:00 20.5 18 Norte 25 Norte 0 -- -- 77
2020-05-04 21:00:00 20.8 21 Norte 31 Norte 0 -- -- 75
2020-05-04 20:00:00 21.3 22 Norte 33 Norte 0 -- -- 72
2020-05-04 19:00:00 21.7 27 Noroeste 39 Noroeste 0 -- -- 70
2020-05-04 18:00:00 21.9 24 Noroeste 43 Noroeste 0 -- -- 67
2020-05-04 17:00:00 22.4 24 Noroeste 33 Noroeste 0 -- -- 67
2020-05-04 16:00:00 22.2 24 Noroeste 37 Noroeste 0 -- -- 68
2020-05-04 15:00:00 22.5 17 Noroeste 27 Noroeste 0 -- -- 67
2020-05-04 14:00:00 22.8 14 Norte 27 Noroeste 0 -- -- 68
2020-05-04 13:00:00 22.8 8 Nordeste 16 Este 0 -- -- 67
2020-05-04 12:00:00 21.6 11 Este 16 Este 0 -- -- 75
2020-05-04 11:00:00 21.2 13 Sudeste 18 Sudeste 0 -- -- 80
2020-05-04 10:00:00 21.4 10 Este 13 Sudeste 0 -- -- 75
2020-05-04 09:00:00 21.2 4 Sudeste 5 Sudeste 0 -- -- 82
2020-05-04 08:00:00 19.8 0 Calma 6 Sudeste 0 -- -- 86
2020-05-04 07:00:00 17.8 2 Sur 7 Oeste 0 -- -- 91
2020-05-04 06:00:00 18.1 4 Oeste 9 Oeste 0 -- -- 91
2020-05-04 05:00:00 18.1 6 Oeste 9 Oeste 0 -- -- 90
2020-05-04 04:00:00 18.3 5 Sudoeste 12 Noroeste 0 -- -- 89
2020-05-04 03:00:00 18.4 6 Oeste 11 Oeste 0 -- -- 88
2020-05-04 02:00:00 19.1 7 Noroeste 20 Oeste 0 -- -- 85
2020-05-04 01:00:00 19.3 12 Oeste 20 Oeste 0 -- -- 83
2020-05-04 00:00:00 19.4 17 Oeste 30 Noroeste 0 -- -- 82
2020-05-03 23:00:00 19.4 18 Oeste 30 Noroeste 0 -- -- 84
2020-05-03 22:00:00 19.6 19 Noroeste 29 Oeste 0 -- -- 84
2020-05-03 21:00:00 19.8 18 Noroeste 27 Oeste 0 -- -- 81
2020-05-03 20:00:00 20.3 20 Noroeste 36 Noroeste 0 -- -- 76
2020-05-03 19:00:00 20.9 17 Noroeste 29 Noroeste 0 -- -- 72
2020-05-03 18:00:00 21.3 18 Noroeste 31 Noroeste 0 -- -- 70
2020-05-03 17:00:00 21 22 Noroeste 30 Noroeste 0 -- -- 73
2020-05-03 16:00:00 21.2 20 Noroeste 27 Noroeste 0 -- -- 70
2020-05-03 15:00:00 21.2 16 Noroeste 25 Noroeste 0 -- -- 71
2020-05-03 14:00:00 21.8 16 Norte 27 Noroeste 0 -- -- 75
2020-05-03 13:00:00 20.9 21 Noroeste 30 Noroeste 0 -- -- 77
2020-05-03 12:00:00 20.4 21 Oeste 30 Noroeste 0 -- -- 79
2020-05-03 11:00:00 20.2 18 Noroeste 30 Noroeste 0 -- -- 81
2020-05-03 10:00:00 19.9 18 Oeste 29 Oeste 0 -- -- 84
2020-05-03 09:00:00 19 18 Oeste 34 Oeste 0 -- -- 88
2020-05-03 08:00:00 18.4 18 Oeste 31 Noroeste 0 -- -- 92
2020-05-03 07:00:00 18.5 4 Sur 11 Sudeste 0 -- -- 92
2020-05-03 06:00:00 18.8 0 Calma 10 Oeste 0 -- -- 92
2020-05-03 05:00:00 18.8 2 Norte 9 Este 0 -- -- 93
2020-05-03 04:00:00 19.1 5 Nordeste 12 Nordeste 0 -- -- 93
2020-05-03 03:00:00 19.1 6 Este 15 Este 0 -- -- 94
2020-05-03 02:00:00 19.1 11 Este 15 Este 0 -- -- 95
2020-05-03 01:00:00 19.1 6 Oeste 16 Noroeste 0 -- -- 95
2020-05-03 00:00:00 19.3 10 Noroeste 19 Noroeste 0 -- -- 94